Time;durP1;ratioP1;P1;durP2;ratioP2;P2;SDS_P1;SDS_P2;PMS_P1;PMS_P2;Temp;Humidity;BMP_temperature;BMP_pressure;BME280_temperature;BME280_humidity;BME280_pressure;Samples;Min_cycle;Max_cycle;Signal;HPM_P1;HPM_P2
2024/01/20 00:00:25;;;;;;;42.93;18.83;;;;;;;;;;5097106;28;20223;-77
2024/01/20 00:03:12;;;;;;;64.93;22.57;;;;;;;;;;5095588;28;20229;-78
2024/01/20 00:05:40;;;;;;;53.20;20.37;;;;;;;;;;5095918;28;20291;-78
2024/01/20 00:08:07;;;;;;;39.70;19.20;;;;;;;;;;5095376;28;20207;-78
2024/01/20 00:10:35;;;;;;;36.97;18.13;;;;;;;;;;5095517;28;20255;-78
2024/01/20 00:13:02;;;;;;;36.20;17.83;;;;;;;;;;5095659;28;20199;-77
2024/01/20 00:15:30;;;;;;;37.37;16.97;;;;;;;;;;5095455;28;20210;-78
2024/01/20 00:17:57;;;;;;;41.73;16.03;;;;;;;;;;5095519;28;20210;-78
2024/01/20 00:20:24;;;;;;;42.67;17.00;;;;;;;;;;5096398;28;20532;-78
2024/01/20 00:22:52;;;;;;;36.10;16.03;;;;;;;;;;5096885;28;20656;-77
2024/01/20 00:25:20;;;;;;;36.63;15.97;;;;;;;;;;5096318;28;20589;-77
2024/01/20 00:27:49;;;;;;;42.63;17.13;;;;;;;;;;5096445;28;20713;-76
2024/01/20 00:30:21;;;;;;;62.87;21.63;;;;;;;;;;5096499;28;20190;-77
2024/01/20 00:32:48;;;;;;;38.30;17.37;;;;;;;;;;5078813;28;20231;-77
2024/01/20 00:35:15;;;;;;;38.43;16.10;;;;;;;;;;5096363;28;20211;-77
2024/01/20 00:37:42;;;;;;;33.40;14.83;;;;;;;;;;5096470;28;20639;-77
2024/01/20 00:40:10;;;;;;;33.60;14.87;;;;;;;;;;5096339;28;20210;-77
2024/01/20 00:42:37;;;;;;;36.67;15.57;;;;;;;;;;5078729;28;20205;-77
2024/01/20 00:45:05;;;;;;;44.70;17.00;;;;;;;;;;5095809;28;20237;-78
2024/01/20 00:47:32;;;;;;;35.83;16.63;;;;;;;;;;5095909;28;20198;-78
2024/01/20 00:50:04;;;;;;;39.00;17.43;;;;;;;;;;5096368;28;20534;-81
2024/01/20 00:52:32;;;;;;;41.50;16.53;;;;;;;;;;5096352;28;20214;-80
2024/01/20 00:54:59;;;;;;;38.73;16.63;;;;;;;;;;5095667;28;20248;-79
2024/01/20 00:57:26;;;;;;;36.47;17.07;;;;;;;;;;5095500;28;20218;-79
2024/01/20 00:59:53;;;;;;;38.67;15.87;;;;;;;;;;5095640;28;20234;-77
2024/01/20 01:02:20;;;;;;;29.87;15.07;;;;;;;;;;5095799;28;20195;-77
2024/01/20 01:04:47;;;;;;;42.00;15.60;;;;;;;;;;5096082;28;20226;-81
2024/01/20 01:07:14;;;;;;;34.03;15.40;;;;;;;;;;5096121;28;20209;-81
2024/01/20 01:09:41;;;;;;;30.57;15.03;;;;;;;;;;5095549;28;20209;-78
2024/01/20 01:12:09;;;;;;;34.50;15.23;;;;;;;;;;5095765;28;20230;-77
2024/01/20 01:14:37;;;;;;;40.60;16.43;;;;;;;;;;5095857;28;20203;-77
2024/01/20 01:17:04;;;;;;;44.47;16.93;;;;;;;;;;5095839;28;20207;-77
2024/01/20 01:19:31;;;;;;;30.87;14.73;;;;;;;;;;5095442;28;20214;-77
2024/01/20 01:21:58;;;;;;;40.03;16.00;;;;;;;;;;5095949;28;20248;-77
2024/01/20 01:24:25;;;;;;;39.97;14.50;;;;;;;;;;5095183;28;20721;-77
2024/01/20 01:26:52;;;;;;;31.87;13.90;;;;;;;;;;5095927;28;20199;-77
2024/01/20 01:29:19;;;;;;;31.03;13.93;;;;;;;;;;5095574;28;20656;-77
2024/01/20 01:31:47;;;;;;;30.60;13.17;;;;;;;;;;5095503;28;20256;-77
2024/01/20 01:34:14;;;;;;;31.83;14.10;;;;;;;;;;5095386;28;20211;-77
2024/01/20 01:36:41;;;;;;;30.27;13.13;;;;;;;;;;5095388;28;20198;-77
2024/01/20 01:39:09;;;;;;;35.30;14.13;;;;;;;;;;5094975;28;20197;-77
2024/01/20 01:41:36;;;;;;;34.50;15.00;;;;;;;;;;5095595;28;20213;-77
2024/01/20 01:44:03;;;;;;;35.50;13.17;;;;;;;;;;5095280;28;20261;-76
2024/01/20 01:46:30;;;;;;;34.37;14.97;;;;;;;;;;5060394;28;20202;-76
2024/01/20 01:48:58;;;;;;;31.73;12.53;;;;;;;;;;5095492;28;20191;-78
2024/01/20 01:51:25;;;;;;;26.03;12.20;;;;;;;;;;5094942;28;20206;-78
2024/01/20 01:53:53;;;;;;;31.27;13.40;;;;;;;;;;5094938;28;20187;-78
2024/01/20 01:56:20;;;;;;;32.27;14.67;;;;;;;;;;5077411;28;20277;-77
2024/01/20 01:58:47;;;;;;;36.97;14.00;;;;;;;;;;5094947;28;20279;-79
2024/01/20 02:01:14;;;;;;;66.23;21.17;;;;;;;;;;5094894;28;20212;-79
2024/01/20 02:03:42;;;;;;;35.30;12.80;;;;;;;;;;5094609;28;20577;-79
2024/01/20 02:06:09;;;;;;;28.90;12.80;;;;;;;;;;5094641;28;20203;-79
2024/01/20 02:08:39;;;;;;;41.43;13.53;;;;;;;;;;5095109;28;20202;-79
2024/01/20 02:11:07;;;;;;;32.40;13.17;;;;;;;;;;5094725;28;20233;-81
2024/01/20 02:13:35;;;;;;;24.53;12.20;;;;;;;;;;5076827;28;20207;-80
2024/01/20 02:16:03;;;;;;;34.27;12.53;;;;;;;;;;5094602;28;20199;-77
2024/01/20 02:18:30;;;;;;;29.70;13.03;;;;;;;;;;5094517;28;20601;-77
2024/01/20 02:20:57;;;;;;;33.13;13.67;;;;;;;;;;5094230;28;20195;-77
2024/01/20 02:23:25;;;;;;;39.53;12.90;;;;;;;;;;5076767;28;20700;-77
2024/01/20 02:25:52;;;;;;;45.20;15.53;;;;;;;;;;5094195;28;20226;-77
2024/01/20 02:28:19;;;;;;;33.73;15.07;;;;;;;;;;5094252;28;20275;-77
2024/01/20 02:30:46;;;;;;;30.60;14.27;;;;;;;;;;5094211;28;20206;-77
2024/01/20 02:33:14;;;;;;;30.63;14.73;;;;;;;;;;5094295;28;20199;-77
2024/01/20 02:35:41;;;;;;;29.43;14.60;;;;;;;;;;5094430;28;20199;-77
2024/01/20 02:38:08;;;;;;;30.00;14.13;;;;;;;;;;5094181;28;20190;-76
2024/01/20 02:40:35;;;;;;;35.13;14.43;;;;;;;;;;5094045;28;20210;-77
2024/01/20 02:43:02;;;;;;;32.63;14.47;;;;;;;;;;5094090;28;20194;-76
2024/01/20 02:45:29;;;;;;;29.57;13.27;;;;;;;;;;5093660;28;20238;-77
2024/01/20 02:47:57;;;;;;;29.03;13.93;;;;;;;;;;5093827;28;20578;-77
2024/01/20 02:50:25;;;;;;;28.37;13.93;;;;;;;;;;5093765;28;20213;-77
2024/01/20 02:52:52;;;;;;;37.10;15.00;;;;;;;;;;5094131;28;20232;-76
2024/01/20 02:55:19;;;;;;;41.67;14.53;;;;;;;;;;5093889;28;20252;-76
2024/01/20 02:57:46;;;;;;;32.53;13.93;;;;;;;;;;5093043;28;20195;-76
2024/01/20 03:00:14;;;;;;;34.10;14.23;;;;;;;;;;5093519;28;20253;-76
2024/01/20 03:02:41;;;;;;;34.63;14.07;;;;;;;;;;5076002;28;20195;-77
2024/01/20 03:05:08;;;;;;;34.23;13.67;;;;;;;;;;5075484;28;20288;-76
2024/01/20 03:07:36;;;;;;;32.33;14.20;;;;;;;;;;5076151;28;20198;-77
2024/01/20 03:10:03;;;;;;;32.03;13.93;;;;;;;;;;5093734;28;20206;-77
2024/01/20 03:12:31;;;;;;;37.20;14.57;;;;;;;;;;5075940;28;20207;-79
2024/01/20 03:14:58;;;;;;;32.60;14.13;;;;;;;;;;5093483;28;20206;-77
2024/01/20 03:17:25;;;;;;;36.43;13.63;;;;;;;;;;5093825;28;20247;-77
2024/01/20 03:19:52;;;;;;;38.03;12.83;;;;;;;;;;5093601;28;20199;-77
2024/01/20 03:22:19;;;;;;;36.23;15.17;;;;;;;;;;5093528;28;20241;-77
2024/01/20 03:24:47;;;;;;;29.17;11.40;;;;;;;;;;5093584;28;20242;-80
2024/01/20 03:27:17;;;;;;;28.60;12.00;;;;;;;;;;5075690;28;20563;-77
2024/01/20 03:29:44;;;;;;;29.80;11.37;;;;;;;;;;5075684;28;20202;-76
2024/01/20 03:32:12;;;;;;;29.07;11.30;;;;;;;;;;5075556;28;20199;-76
2024/01/20 03:34:39;;;;;;;31.73;11.83;;;;;;;;;;5093659;28;20195;-77
2024/01/20 03:37:06;;;;;;;22.97;10.20;;;;;;;;;;5093463;28;20191;-80
2024/01/20 03:39:33;;;;;;;35.47;12.50;;;;;;;;;;5093213;28;20697;-77
2024/01/20 03:42:00;;;;;;;30.53;11.00;;;;;;;;;;5093571;28;20207;-79
2024/01/20 03:44:28;;;;;;;34.90;11.50;;;;;;;;;;5093135;28;20226;-79
2024/01/20 03:46:55;;;;;;;22.03;9.50;;;;;;;;;;5093425;28;20206;-77
2024/01/20 03:49:22;;;;;;;33.97;11.77;;;;;;;;;;5093303;28;20210;-78
2024/01/20 03:51:50;;;;;;;43.53;12.27;;;;;;;;;;5093368;28;20203;-78
2024/01/20 03:54:17;;;;;;;26.50;11.60;;;;;;;;;;5093099;28;20674;-77
2024/01/20 03:56:44;;;;;;;49.90;19.70;;;;;;;;;;5093485;28;20199;-77
2024/01/20 03:59:11;;;;;;;30.13;12.07;;;;;;;;;;5093308;28;20231;-77
2024/01/20 04:01:39;;;;;;;35.07;12.70;;;;;;;;;;5093474;28;20199;-77
2024/01/20 04:04:06;;;;;;;41.27;12.93;;;;;;;;;;5073516;28;20233;-77
2024/01/20 04:06:34;;;;;;;34.53;12.17;;;;;;;;;;5071345;28;20245;-77
2024/01/20 04:09:01;;;;;;;34.27;13.43;;;;;;;;;;5054638;28;20197;-76
2024/01/20 04:11:28;;;;;;;39.93;13.57;;;;;;;;;;5075880;28;20258;-77
2024/01/20 04:13:55;;;;;;;43.33;15.13;;;;;;;;;;5075810;28;20203;-77
2024/01/20 04:16:23;;;;;;;24.60;12.00;;;;;;;;;;5075291;28;20204;-77
2024/01/20 04:18:49;;;;;;;58.47;24.47;;;;;;;;;;5075477;28;20641;-77
2024/01/20 04:21:17;;;;;;;37.87;14.03;;;;;;;;;;5075316;28;20199;-76
2024/01/20 04:23:44;;;;;;;73.03;23.90;;;;;;;;;;5057580;28;20612;-76
2024/01/20 04:26:11;;;;;;;30.80;12.83;;;;;;;;;;5075176;28;20234;-76
2024/01/20 04:28:38;;;;;;;26.43;11.70;;;;;;;;;;5058925;28;20227;-77
2024/01/20 04:31:05;;;;;;;24.67;12.10;;;;;;;;;;5076239;28;20195;-77
2024/01/20 04:33:34;;;;;;;25.57;11.60;;;;;;;;;;5076423;28;20203;-77
2024/01/20 04:36:02;;;;;;;28.40;11.20;;;;;;;;;;5075912;28;20644;-77
2024/01/20 04:38:29;;;;;;;28.40;12.27;;;;;;;;;;5076147;28;20206;-77
2024/01/20 04:40:56;;;;;;;29.70;11.47;;;;;;;;;;5076259;28;20199;-77
2024/01/20 04:43:23;;;;;;;34.70;11.80;;;;;;;;;;5041796;28;20632;-77
2024/01/20 04:45:50;;;;;;;29.47;12.83;;;;;;;;;;5075841;28;20281;-77
2024/01/20 04:48:19;;;;;;;31.53;14.87;;;;;;;;;;5076099;28;20195;-80
2024/01/20 04:50:47;;;;;;;33.77;13.30;;;;;;;;;;5076060;28;20191;-77
2024/01/20 04:53:14;;;;;;;31.60;12.40;;;;;;;;;;5076210;28;20275;-80
2024/01/20 04:55:41;;;;;;;35.20;13.27;;;;;;;;;;5076346;28;20199;-77
2024/01/20 04:58:08;;;;;;;37.93;14.23;;;;;;;;;;5075432;28;20207;-77
2024/01/20 05:00:36;;;;;;;43.77;14.60;;;;;;;;;;5055996;28;20215;-76
2024/01/20 05:03:03;;;;;;;29.60;13.67;;;;;;;;;;5054561;28;20230;-76
2024/01/20 05:05:31;;;;;;;36.80;14.77;;;;;;;;;;5054850;28;20315;-77
2024/01/20 05:07:58;;;;;;;39.33;13.97;;;;;;;;;;5055509;28;20212;-78
2024/01/20 05:10:25;;;;;;;27.23;13.37;;;;;;;;;;5055590;28;20219;-76
2024/01/20 05:12:52;;;;;;;32.43;15.00;;;;;;;;;;5054499;28;20204;-77
2024/01/20 05:15:19;;;;;;;33.77;13.50;;;;;;;;;;5055273;28;20188;-77
2024/01/20 05:17:46;;;;;;;36.60;13.90;;;;;;;;;;5055385;28;20211;-77
2024/01/20 05:20:14;;;;;;;38.97;15.57;;;;;;;;;;5054941;28;20657;-77
2024/01/20 05:22:42;;;;;;;29.30;12.77;;;;;;;;;;5055184;28;20242;-77
2024/01/20 05:25:09;;;;;;;36.23;15.40;;;;;;;;;;5054932;28;20224;-77
2024/01/20 05:27:36;;;;;;;34.80;14.27;;;;;;;;;;5055345;28;20687;-78
2024/01/20 05:30:05;;;;;;;36.93;15.20;;;;;;;;;;5055168;28;20197;-76
2024/01/20 05:32:32;;;;;;;45.50;16.37;;;;;;;;;;5054059;28;20223;-76
2024/01/20 05:34:59;;;;;;;52.17;22.13;;;;;;;;;;5054827;28;20211;-77
2024/01/20 05:37:26;;;;;;;37.17;16.30;;;;;;;;;;5054878;28;20224;-77
2024/01/20 05:39:53;;;;;;;40.40;16.73;;;;;;;;;;5054635;28;20258;-77
2024/01/20 05:42:20;;;;;;;39.73;16.90;;;;;;;;;;5054916;28;20315;-77
2024/01/20 05:44:47;;;;;;;44.40;16.50;;;;;;;;;;5054924;28;20788;-77
2024/01/20 05:47:14;;;;;;;42.27;16.03;;;;;;;;;;5053809;28;20199;-77
2024/01/20 05:49:42;;;;;;;37.63;15.53;;;;;;;;;;5053561;28;20200;-77
2024/01/20 05:52:10;;;;;;;36.30;15.27;;;;;;;;;;5054625;28;20208;-77
2024/01/20 05:54:37;;;;;;;50.00;17.77;;;;;;;;;;5053452;28;20204;-77
2024/01/20 05:57:04;;;;;;;50.17;16.30;;;;;;;;;;5054435;28;20204;-77
2024/01/20 05:59:31;;;;;;;34.10;14.60;;;;;;;;;;5054700;28;20274;-76
2024/01/20 06:01:58;;;;;;;43.27;20.40;;;;;;;;;;5054429;28;20204;-76
2024/01/20 06:04:26;;;;;;;42.83;15.90;;;;;;;;;;5054706;28;20280;-75
2024/01/20 06:06:53;;;;;;;40.33;15.77;;;;;;;;;;5053005;28;20232;-80
2024/01/20 06:09:20;;;;;;;45.83;15.27;;;;;;;;;;5054208;28;20199;-79
2024/01/20 06:11:48;;;;;;;42.20;14.70;;;;;;;;;;5054002;28;20210;-76
2024/01/20 06:14:16;;;;;;;32.07;14.23;;;;;;;;;;5054082;28;20200;-77
2024/01/20 06:16:43;;;;;;;46.73;14.93;;;;;;;;;;5053584;28;20200;-79
2024/01/20 06:19:10;;;;;;;38.90;16.23;;;;;;;;;;5053721;28;20218;-78
2024/01/20 06:21:37;;;;;;;37.27;15.67;;;;;;;;;;5053865;28;20656;-78
2024/01/20 06:24:05;;;;;;;38.97;17.77;;;;;;;;;;5053895;28;20724;-79
2024/01/20 06:26:32;;;;;;;44.40;15.20;;;;;;;;;;5050594;28;20263;-79
2024/01/20 06:29:00;;;;;;;33.33;14.77;;;;;;;;;;5054004;28;20257;-78
2024/01/20 06:31:28;;;;;;;29.97;13.97;;;;;;;;;;5053498;28;20204;-78
2024/01/20 06:33:55;;;;;;;44.67;16.80;;;;;;;;;;5053511;28;20231;-78
2024/01/20 06:36:25;;;;;;;36.07;14.73;;;;;;;;;;5052997;28;20222;-77
2024/01/20 06:38:53;;;;;;;35.63;15.97;;;;;;;;;;5049526;28;20199;-75
2024/01/20 06:41:20;;;;;;;47.73;17.73;;;;;;;;;;5045077;28;20248;-75
2024/01/20 06:43:47;;;;;;;96.50;24.67;;;;;;;;;;5046232;28;20253;-74
2024/01/20 06:46:14;;;;;;;48.40;16.97;;;;;;;;;;5046544;28;20224;-74
2024/01/20 06:48:42;;;;;;;43.97;19.27;;;;;;;;;;5040403;28;20685;-75
2024/01/20 06:51:14;;;;;;;152.07;61.50;;;;;;;;;;5041832;28;20212;-76
2024/01/20 06:53:43;;;;;;;41.90;16.03;;;;;;;;;;5040226;28;20189;-76
2024/01/20 06:56:11;;;;;;;38.93;15.00;;;;;;;;;;5047043;28;20291;-76
2024/01/20 06:58:39;;;;;;;54.97;24.60;;;;;;;;;;5057649;28;20242;-76
2024/01/20 07:01:06;;;;;;;27.90;14.30;;;;;;;;;;5073213;28;20199;-75
2024/01/20 07:03:33;;;;;;;34.80;14.30;;;;;;;;;;5061936;28;20199;-73
2024/01/20 07:06:00;;;;;;;36.00;13.73;;;;;;;;;;5063993;28;20220;-75
2024/01/20 07:08:28;;;;;;;26.80;13.97;;;;;;;;;;5065125;28;20190;-76
2024/01/20 07:10:55;;;;;;;35.87;14.17;;;;;;;;;;5067126;28;20199;-77
2024/01/20 07:13:22;;;;;;;33.93;14.03;;;;;;;;;;5043909;28;20218;-77
2024/01/20 07:15:49;;;;;;;26.50;13.23;;;;;;;;;;5056750;28;20226;-76
2024/01/20 07:18:17;;;;;;;36.07;14.67;;;;;;;;;;5050939;28;20560;-77
2024/01/20 07:20:44;;;;;;;37.30;14.80;;;;;;;;;;5063012;28;20227;-79
2024/01/20 07:23:11;;;;;;;27.63;12.93;;;;;;;;;;5061846;28;20712;-78
2024/01/20 07:25:39;;;;;;;37.50;16.73;;;;;;;;;;5061998;28;20288;-77
2024/01/20 07:28:06;;;;;;;30.50;14.23;;;;;;;;;;5063382;28;20238;-77
2024/01/20 07:30:33;;;;;;;33.73;15.47;;;;;;;;;;5061022;28;20250;-77
2024/01/20 07:33:01;;;;;;;31.37;14.13;;;;;;;;;;5045182;28;20218;-78
2024/01/20 07:35:28;;;;;;;31.70;13.43;;;;;;;;;;5058162;28;20231;-78
2024/01/20 07:37:55;;;;;;;30.60;14.50;;;;;;;;;;5061512;28;20745;-77
2024/01/20 07:40:22;;;;;;;40.20;15.03;;;;;;;;;;5025909;28;20227;-78
2024/01/20 07:42:50;;;;;;;38.30;15.30;;;;;;;;;;5054376;28;20226;-79
2024/01/20 07:45:16;;;;;;;37.27;15.07;;;;;;;;;;5054250;28;20262;-78
2024/01/20 07:47:46;;;;;;;38.93;15.97;;;;;;;;;;5056052;28;20677;-78
2024/01/20 07:50:13;;;;;;;44.23;18.40;;;;;;;;;;5055390;28;20228;-78
2024/01/20 07:52:40;;;;;;;38.83;14.57;;;;;;;;;;5038129;28;20323;-78
2024/01/20 07:55:08;;;;;;;37.00;15.10;;;;;;;;;;5067307;28;20286;-78
2024/01/20 07:57:35;;;;;;;39.50;15.33;;;;;;;;;;5066902;28;20223;-77
2024/01/20 08:00:04;;;;;;;35.50;16.20;;;;;;;;;;5055926;28;20227;-77
2024/01/20 08:02:33;;;;;;;32.03;14.80;;;;;;;;;;5044317;28;20265;-79
2024/01/20 08:05:01;;;;;;;32.93;15.70;;;;;;;;;;5050149;28;20603;-77
2024/01/20 08:07:28;;;;;;;41.83;16.37;;;;;;;;;;5050939;28;20239;-77
2024/01/20 08:09:55;;;;;;;40.40;19.17;;;;;;;;;;5037101;28;20216;-78
2024/01/20 08:12:22;;;;;;;51.13;19.90;;;;;;;;;;5035333;28;20228;-78
2024/01/20 08:14:49;;;;;;;54.47;20.27;;;;;;;;;;5045439;28;20224;-75
2024/01/20 08:17:17;;;;;;;55.53;19.30;;;;;;;;;;5046994;28;20227;-78
2024/01/20 08:19:48;;;;;;;65.97;25.70;;;;;;;;;;5034504;28;20224;-79
2024/01/20 08:22:17;;;;;;;44.70;16.90;;;;;;;;;;5033834;28;20220;-78
2024/01/20 08:24:44;;;;;;;49.93;20.10;;;;;;;;;;5036642;28;20236;-78
2024/01/20 08:27:11;;;;;;;46.67;17.07;;;;;;;;;;5034887;28;20771;-78
2024/01/20 08:29:39;;;;;;;41.43;18.17;;;;;;;;;;5037359;28;20235;-78
2024/01/20 08:32:06;;;;;;;44.70;14.97;;;;;;;;;;5055084;28;20233;-78
2024/01/20 08:34:33;;;;;;;37.80;15.73;;;;;;;;;;5055603;28;20240;-78
2024/01/20 08:37:00;;;;;;;35.63;14.50;;;;;;;;;;5051202;28;20274;-78
2024/01/20 08:39:27;;;;;;;41.27;17.57;;;;;;;;;;5055990;28;20216;-78
2024/01/20 08:41:55;;;;;;;46.00;16.57;;;;;;;;;;5054970;28;20239;-77
2024/01/20 08:44:22;;;;;;;31.33;13.73;;;;;;;;;;5072806;28;20234;-78
2024/01/20 08:46:49;;;;;;;41.83;15.50;;;;;;;;;;5067295;28;20235;-78
2024/01/20 08:49:16;;;;;;;27.97;13.23;;;;;;;;;;5035275;28;20237;-79
2024/01/20 08:51:43;;;;;;;43.80;17.00;;;;;;;;;;5034659;28;20291;-75
2024/01/20 08:54:10;;;;;;;26.80;12.73;;;;;;;;;;5043228;28;20216;-78
2024/01/20 08:56:38;;;;;;;28.00;13.13;;;;;;;;;;5054584;28;20244;-79
2024/01/20 08:59:05;;;;;;;31.37;11.93;;;;;;;;;;5049786;28;20584;-80
2024/01/20 09:01:32;;;;;;;28.23;13.37;;;;;;;;;;5044852;28;20307;-74
2024/01/20 09:04:01;;;;;;;22.27;10.67;;;;;;;;;;5041964;28;20232;-76
2024/01/20 09:06:28;;;;;;;31.00;12.47;;;;;;;;;;5044407;28;20226;-77
2024/01/20 09:08:55;;;;;;;40.07;14.80;;;;;;;;;;5035195;28;20298;-75
2024/01/20 09:11:22;;;;;;;37.43;14.23;;;;;;;;;;5039857;28;20230;-75
2024/01/20 09:13:51;;;;;;;29.03;12.23;;;;;;;;;;5053200;28;20240;-75
2024/01/20 09:16:18;;;;;;;28.90;12.43;;;;;;;;;;5051260;28;20708;-75
2024/01/20 09:18:45;;;;;;;28.67;11.60;;;;;;;;;;5034037;28;20232;-75
2024/01/20 09:21:12;;;;;;;26.53;11.27;;;;;;;;;;5035157;28;20220;-75
2024/01/20 09:23:40;;;;;;;22.40;10.63;;;;;;;;;;5050573;28;20227;-76
2024/01/20 09:26:07;;;;;;;32.17;13.73;;;;;;;;;;5053994;28;20681;-76
2024/01/20 09:28:35;;;;;;;21.73;11.03;;;;;;;;;;5031519;28;20235;-77
2024/01/20 09:31:03;;;;;;;29.03;10.80;;;;;;;;;;5044728;28;20717;-77
2024/01/20 09:33:34;;;;;;;30.17;10.47;;;;;;;;;;5052043;28;20232;-76
2024/01/20 09:36:02;;;;;;;26.40;12.27;;;;;;;;;;5040552;28;20224;-74
2024/01/20 09:38:30;;;;;;;23.13;10.90;;;;;;;;;;5049631;28;20627;-77
2024/01/20 09:40:58;;;;;;;21.47;10.63;;;;;;;;;;5037295;28;20224;-75
2024/01/20 09:43:25;;;;;;;22.17;10.60;;;;;;;;;;5043913;28;20589;-75
2024/01/20 09:45:53;;;;;;;22.20;10.40;;;;;;;;;;5045631;28;20315;-75
2024/01/20 09:48:20;;;;;;;27.67;10.53;;;;;;;;;;5048975;28;20228;-76
2024/01/20 09:50:47;;;;;;;23.10;10.13;;;;;;;;;;5036640;28;20262;-76
2024/01/20 09:53:16;;;;;;;25.10;11.13;;;;;;;;;;5046353;28;20237;-76
2024/01/20 09:55:45;;;;;;;30.83;10.90;;;;;;;;;;5044041;28;20239;-76
2024/01/20 09:58:13;;;;;;;28.50;9.73;;;;;;;;;;5042651;28;20243;-76
2024/01/20 10:00:41;;;;;;;26.70;12.90;;;;;;;;;;5045479;28;20232;-77
2024/01/20 10:03:10;;;;;;;24.90;9.20;;;;;;;;;;5036510;28;20693;-76
2024/01/20 10:05:38;;;;;;;22.80;9.83;;;;;;;;;;5033238;28;20804;-75
2024/01/20 10:08:06;;;;;;;26.47;10.50;;;;;;;;;;5036546;28;20237;-75
2024/01/20 10:10:33;;;;;;;31.30;12.03;;;;;;;;;;5042718;28;20220;-75
2024/01/20 10:13:01;;;;;;;32.27;10.77;;;;;;;;;;5040358;28;20693;-75
2024/01/20 10:15:33;;;;;;;29.87;11.20;;;;;;;;;;5040182;28;20224;-75
2024/01/20 10:18:10;;;;;;;21.93;10.27;;;;;;;;;;5043526;28;20574;-75
2024/01/20 10:20:37;;;;;;;33.17;12.37;;;;;;;;;;5040920;28;20223;-74
2024/01/20 10:23:06;;;;;;;29.50;10.63;;;;;;;;;;5031622;28;20229;-74
2024/01/20 10:25:34;;;;;;;31.83;14.40;;;;;;;;;;5031671;28;20236;-74
2024/01/20 10:28:02;;;;;;;25.33;10.40;;;;;;;;;;5035346;28;20229;-75
2024/01/20 10:30:30;;;;;;;23.13;10.77;;;;;;;;;;5042625;28;20735;-75
2024/01/20 10:33:00;;;;;;;22.60;9.67;;;;;;;;;;5039860;28;20228;-75
2024/01/20 10:35:30;;;;;;;23.93;10.07;;;;;;;;;;5042916;28;20255;-76
2024/01/20 10:38:00;;;;;;;26.60;10.33;;;;;;;;;;5040173;28;20227;-74
2024/01/20 10:40:27;;;;;;;28.70;10.43;;;;;;;;;;5044996;28;20224;-75
2024/01/20 10:42:58;;;;;;;29.30;11.37;;;;;;;;;;5042260;28;20704;-75
2024/01/20 10:45:33;;;;;;;27.40;11.00;;;;;;;;;;5043911;28;20232;-75
2024/01/20 10:48:27;;;;;;;36.07;12.00;;;;;;;;;;5038087;28;20618;-76
2024/01/20 10:51:06;;;;;;;34.10;13.87;;;;;;;;;;5042789;28;20223;-75
2024/01/20 10:53:34;;;;;;;27.43;11.30;;;;;;;;;;5042426;28;20285;-76
2024/01/20 10:56:04;;;;;;;17.77;9.60;;;;;;;;;;5041184;28;20617;-75
2024/01/20 10:58:40;;;;;;;23.80;10.00;;;;;;;;;;5037973;28;20232;-75
2024/01/20 11:01:07;;;;;;;29.17;11.37;;;;;;;;;;5024852;28;20220;-75
2024/01/20 11:03:35;;;;;;;25.97;10.53;;;;;;;;;;5025420;28;20278;-75
2024/01/20 11:06:02;;;;;;;24.13;10.63;;;;;;;;;;5040445;28;20760;-75
2024/01/20 11:08:31;;;;;;;23.97;10.13;;;;;;;;;;5042945;28;20227;-75
2024/01/20 11:10:59;;;;;;;26.83;11.57;;;;;;;;;;5039884;28;20247;-75
2024/01/20 11:13:26;;;;;;;31.37;12.17;;;;;;;;;;5041103;28;20556;-75
2024/01/20 11:15:55;;;;;;;30.07;10.57;;;;;;;;;;5043120;28;20232;-75
2024/01/20 11:18:23;;;;;;;24.87;11.33;;;;;;;;;;5038816;28;20278;-76
2024/01/20 11:20:56;;;;;;;24.20;10.80;;;;;;;;;;5045265;28;20308;-76
2024/01/20 11:23:25;;;;;;;20.47;9.73;;;;;;;;;;5039045;28;20639;-76
2024/01/20 11:25:52;;;;;;;23.40;11.03;;;;;;;;;;5052138;28;20236;-76
2024/01/20 11:28:31;;;;;;;27.87;11.23;;;;;;;;;;5016607;28;20273;-77
2024/01/20 11:30:59;;;;;;;33.53;11.60;;;;;;;;;;5044078;28;20239;-76
2024/01/20 11:33:26;;;;;;;23.03;11.23;;;;;;;;;;5050349;28;20334;-75
2024/01/20 11:35:54;;;;;;;27.57;11.40;;;;;;;;;;5051059;28;20240;-75
2024/01/20 11:38:21;;;;;;;25.77;11.33;;;;;;;;;;5051822;28;20243;-75
2024/01/20 11:40:59;;;;;;;23.70;10.53;;;;;;;;;;5050522;28;20254;-75
2024/01/20 11:43:26;;;;;;;23.73;10.43;;;;;;;;;;5047001;28;20224;-76
2024/01/20 11:45:55;;;;;;;21.60;10.30;;;;;;;;;;5050464;28;20247;-75
2024/01/20 11:48:23;;;;;;;45.10;17.07;;;;;;;;;;5049065;28;20370;-76
2024/01/20 11:50:51;;;;;;;22.80;10.03;;;;;;;;;;5034322;28;20732;-77
2024/01/20 11:53:21;;;;;;;22.40;10.40;;;;;;;;;;5051427;28;20223;-77
2024/01/20 11:55:58;;;;;;;26.90;11.37;;;;;;;;;;5051027;28;21086;-77
2024/01/20 11:58:27;;;;;;;26.03;10.63;;;;;;;;;;5050387;28;20220;-76
2024/01/20 12:00:54;;;;;;;22.17;11.07;;;;;;;;;;5058794;28;20221;-76
2024/01/20 12:03:23;;;;;;;32.97;13.30;;;;;;;;;;5048100;28;20549;-77
2024/01/20 12:05:51;;;;;;;27.40;10.90;;;;;;;;;;5049764;28;20228;-77
2024/01/20 12:08:20;;;;;;;36.33;13.07;;;;;;;;;;5050138;28;20230;-77
2024/01/20 12:10:48;;;;;;;31.33;12.23;;;;;;;;;;5051260;28;20228;-76
2024/01/20 12:13:15;;;;;;;29.03;12.50;;;;;;;;;;5051056;28;20242;-76
2024/01/20 12:15:46;;;;;;;20.73;11.70;;;;;;;;;;5051226;28;20315;-76
2024/01/20 12:18:16;;;;;;;23.13;9.93;;;;;;;;;;5041337;28;20233;-77
2024/01/20 12:20:44;;;;;;;22.53;10.40;;;;;;;;;;5031407;28;20613;-77
2024/01/20 12:23:18;;;;;;;29.27;11.47;;;;;;;;;;5039129;28;20224;-77
2024/01/20 12:25:45;;;;;;;23.40;9.80;;;;;;;;;;5038235;28;20236;-77
2024/01/20 12:28:12;;;;;;;23.00;10.60;;;;;;;;;;5038219;28;20236;-76
2024/01/20 12:30:39;;;;;;;19.50;9.60;;;;;;;;;;5052554;28;20630;-76
2024/01/20 12:33:06;;;;;;;34.70;12.47;;;;;;;;;;5055592;28;20220;-77
2024/01/20 12:35:33;;;;;;;30.97;10.90;;;;;;;;;;5054841;28;20232;-77
2024/01/20 12:38:00;;;;;;;20.63;10.47;;;;;;;;;;5055209;28;20694;-77
2024/01/20 12:40:29;;;;;;;18.57;8.87;;;;;;;;;;5055346;28;20216;-77
2024/01/20 12:42:56;;;;;;;20.60;10.00;;;;;;;;;;5054412;28;20239;-76
2024/01/20 12:45:23;;;;;;;24.70;11.33;;;;;;;;;;5039897;28;20293;-77
2024/01/20 12:47:51;;;;;;;20.60;9.87;;;;;;;;;;5034792;28;20299;-76
2024/01/20 12:50:18;;;;;;;26.60;10.23;;;;;;;;;;5035255;28;20229;-77
2024/01/20 12:52:45;;;;;;;23.10;10.87;;;;;;;;;;5034955;28;20712;-77
2024/01/20 12:55:12;;;;;;;23.07;10.60;;;;;;;;;;5034999;28;20315;-77
2024/01/20 12:57:40;;;;;;;31.67;11.13;;;;;;;;;;5033970;28;20236;-76
2024/01/20 13:00:09;;;;;;;26.53;12.23;;;;;;;;;;5041965;28;20240;-77
2024/01/20 13:02:37;;;;;;;18.70;9.23;;;;;;;;;;5053119;28;20297;-77
2024/01/20 13:05:05;;;;;;;15.27;8.03;;;;;;;;;;5054413;28;20232;-77
2024/01/20 13:07:32;;;;;;;18.40;9.20;;;;;;;;;;5034190;28;20241;-77
2024/01/20 13:09:59;;;;;;;30.73;10.40;;;;;;;;;;5046186;28;20220;-76
2024/01/20 13:12:27;;;;;;;32.47;11.13;;;;;;;;;;5053624;28;20232;-76
2024/01/20 13:14:54;;;;;;;23.93;9.97;;;;;;;;;;5054553;28;20254;-77
2024/01/20 13:17:21;;;;;;;20.37;9.60;;;;;;;;;;5053942;28;20688;-77
2024/01/20 13:19:48;;;;;;;26.53;10.27;;;;;;;;;;5053684;28;20238;-76
2024/01/20 13:22:16;;;;;;;20.13;8.50;;;;;;;;;;5054125;28;20232;-76
2024/01/20 13:24:43;;;;;;;23.17;8.33;;;;;;;;;;5054375;28;20680;-76
2024/01/20 13:27:10;;;;;;;20.47;9.47;;;;;;;;;;5053466;28;20235;-76
2024/01/20 13:29:37;;;;;;;21.37;9.03;;;;;;;;;;5053905;28;20216;-78
2024/01/20 13:32:06;;;;;;;21.10;8.97;;;;;;;;;;5053772;28;20650;-77
2024/01/20 13:34:33;;;;;;;18.03;8.27;;;;;;;;;;5054182;28;20251;-78
2024/01/20 13:37:00;;;;;;;23.70;12.60;;;;;;;;;;5053748;28;20216;-77
2024/01/20 13:39:27;;;;;;;33.37;12.10;;;;;;;;;;5053987;28;20219;-78
2024/01/20 13:41:55;;;;;;;22.53;9.87;;;;;;;;;;5052179;28;20238;-78
2024/01/20 13:44:22;;;;;;;21.93;8.70;;;;;;;;;;5053940;28;20242;-78
2024/01/20 13:46:49;;;;;;;23.13;10.73;;;;;;;;;;5053565;28;20273;-76
2024/01/20 13:49:16;;;;;;;23.07;9.50;;;;;;;;;;5053516;28;20232;-78
2024/01/20 13:51:44;;;;;;;27.87;11.30;;;;;;;;;;5053666;28;20220;-77
2024/01/20 13:54:11;;;;;;;27.07;10.50;;;;;;;;;;5054705;28;20195;-77
2024/01/20 13:56:38;;;;;;;26.43;11.17;;;;;;;;;;5054609;28;20199;-77
2024/01/20 13:59:06;;;;;;;26.23;10.40;;;;;;;;;;5054590;28;20236;-77
2024/01/20 14:01:34;;;;;;;24.20;9.73;;;;;;;;;;5054598;28;20203;-77
2024/01/20 14:04:01;;;;;;;30.57;14.17;;;;;;;;;;5054686;28;20201;-77
2024/01/20 14:06:28;;;;;;;17.10;8.23;;;;;;;;;;5054543;28;20537;-77
2024/01/20 14:08:55;;;;;;;17.70;7.57;;;;;;;;;;5054201;28;20311;-77
2024/01/20 14:11:23;;;;;;;16.83;7.47;;;;;;;;;;5054281;28;20204;-77
2024/01/20 14:13:50;;;;;;;20.00;7.67;;;;;;;;;;5054377;28;20567;-78
2024/01/20 14:16:18;;;;;;;18.10;8.57;;;;;;;;;;5054326;28;20200;-77
2024/01/20 14:18:45;;;;;;;18.27;8.30;;;;;;;;;;5054330;28;20227;-77
2024/01/20 14:21:12;;;;;;;15.07;7.60;;;;;;;;;;5054477;28;20196;-75